sensor_id;sensor_type;location;lat;lon;timestamp;P1;durP1;ratioP1;P2;durP2;ratioP2
65656;SDS011;57397;50.096;14.404;2022-12-18T00:00:28;6.80;;;3.20;;
65656;SDS011;57397;50.096;14.404;2022-12-18T00:02:53;5.28;;;3.03;;
65656;SDS011;57397;50.096;14.404;2022-12-18T00:05:20;7.60;;;3.58;;
65656;SDS011;57397;50.096;14.404;2022-12-18T00:07:46;5.78;;;3.20;;
65656;SDS011;57397;50.096;14.404;2022-12-18T00:10:11;5.90;;;3.13;;
65656;SDS011;57397;50.096;14.404;2022-12-18T00:12:36;6.47;;;3.40;;
65656;SDS011;57397;50.096;14.404;2022-12-18T00:15:02;7.07;;;3.58;;
65656;SDS011;57397;50.096;14.404;2022-12-18T00:17:28;7.03;;;3.50;;
65656;SDS011;57397;50.096;14.404;2022-12-18T00:19:53;8.13;;;3.40;;
65656;SDS011;57397;50.096;14.404;2022-12-18T00:22:19;6.82;;;3.25;;
65656;SDS011;57397;50.096;14.404;2022-12-18T00:24:44;5.97;;;3.63;;
65656;SDS011;57397;50.096;14.404;2022-12-18T00:27:10;6.43;;;3.28;;
65656;SDS011;57397;50.096;14.404;2022-12-18T00:29:35;7.20;;;3.90;;
65656;SDS011;57397;50.096;14.404;2022-12-18T00:32:00;7.45;;;3.40;;
65656;SDS011;57397;50.096;14.404;2022-12-18T00:34:26;6.88;;;3.40;;
65656;SDS011;57397;50.096;14.404;2022-12-18T00:36:51;6.22;;;3.30;;
65656;SDS011;57397;50.096;14.404;2022-12-18T00:39:17;6.57;;;3.35;;
65656;SDS011;57397;50.096;14.404;2022-12-18T00:41:42;6.50;;;3.50;;
65656;SDS011;57397;50.096;14.404;2022-12-18T00:44:26;7.00;;;3.20;;
65656;SDS011;57397;50.096;14.404;2022-12-18T00:46:51;5.85;;;3.25;;
65656;SDS011;57397;50.096;14.404;2022-12-18T00:49:17;7.07;;;3.25;;
65656;SDS011;57397;50.096;14.404;2022-12-18T00:51:44;6.05;;;3.30;;
65656;SDS011;57397;50.096;14.404;2022-12-18T00:54:09;7.80;;;3.22;;
65656;SDS011;57397;50.096;14.404;2022-12-18T00:56:36;6.65;;;3.30;;
65656;SDS011;57397;50.096;14.404;2022-12-18T00:59:02;6.63;;;3.60;;
65656;SDS011;57397;50.096;14.404;2022-12-18T01:01:28;7.03;;;3.05;;
65656;SDS011;57397;50.096;14.404;2022-12-18T01:03:54;6.60;;;3.17;;
65656;SDS011;57397;50.096;14.404;2022-12-18T01:06:19;5.72;;;3.08;;
65656;SDS011;57397;50.096;14.404;2022-12-18T01:08:45;6.25;;;3.28;;
65656;SDS011;57397;50.096;14.404;2022-12-18T01:11:11;6.55;;;3.10;;
65656;SDS011;57397;50.096;14.404;2022-12-18T01:13:40;5.93;;;2.85;;
65656;SDS011;57397;50.096;14.404;2022-12-18T01:16:06;6.13;;;3.08;;
65656;SDS011;57397;50.096;14.404;2022-12-18T01:18:32;5.60;;;2.88;;
65656;SDS011;57397;50.096;14.404;2022-12-18T01:20:57;8.00;;;3.20;;
65656;SDS011;57397;50.096;14.404;2022-12-18T01:23:23;5.90;;;3.08;;
65656;SDS011;57397;50.096;14.404;2022-12-18T01:25:49;5.43;;;2.90;;
65656;SDS011;57397;50.096;14.404;2022-12-18T01:28:14;7.13;;;3.03;;
65656;SDS011;57397;50.096;14.404;2022-12-18T01:30:39;6.32;;;3.03;;
65656;SDS011;57397;50.096;14.404;2022-12-18T01:33:05;5.53;;;3.40;;
65656;SDS011;57397;50.096;14.404;2022-12-18T01:35:30;5.70;;;2.95;;
65656;SDS011;57397;50.096;14.404;2022-12-18T01:37:56;6.13;;;3.03;;
65656;SDS011;57397;50.096;14.404;2022-12-18T01:40:21;5.55;;;3.08;;
65656;SDS011;57397;50.096;14.404;2022-12-18T01:42:51;7.07;;;3.45;;
65656;SDS011;57397;50.096;14.404;2022-12-18T01:48:18;7.13;;;3.05;;
65656;SDS011;57397;50.096;14.404;2022-12-18T01:50:40;5.72;;;3.15;;
65656;SDS011;57397;50.096;14.404;2022-12-18T01:53:15;5.68;;;2.70;;
65656;SDS011;57397;50.096;14.404;2022-12-18T01:58:08;5.43;;;2.80;;
65656;SDS011;57397;50.096;14.404;2022-12-18T02:00:33;5.30;;;2.50;;
65656;SDS011;57397;50.096;14.404;2022-12-18T02:02:59;6.10;;;3.03;;
65656;SDS011;57397;50.096;14.404;2022-12-18T02:05:41;5.70;;;2.88;;
65656;SDS011;57397;50.096;14.404;2022-12-18T02:16:05;6.32;;;2.97;;
65656;SDS011;57397;50.096;14.404;2022-12-18T02:18:50;6.80;;;3.13;;
65656;SDS011;57397;50.096;14.404;2022-12-18T02:26:32;5.43;;;2.53;;
65656;SDS011;57397;50.096;14.404;2022-12-18T02:29:08;7.07;;;3.08;;
65656;SDS011;57397;50.096;14.404;2022-12-18T02:31:43;5.45;;;2.85;;
65656;SDS011;57397;50.096;14.404;2022-12-18T02:34:11;5.30;;;2.88;;
65656;SDS011;57397;50.096;14.404;2022-12-18T02:36:38;6.38;;;3.00;;
65656;SDS011;57397;50.096;14.404;2022-12-18T02:39:07;6.70;;;3.33;;
65656;SDS011;57397;50.096;14.404;2022-12-18T02:41:34;6.05;;;3.05;;
65656;SDS011;57397;50.096;14.404;2022-12-18T02:44:06;7.00;;;2.97;;
65656;SDS011;57397;50.096;14.404;2022-12-18T02:46:48;9.05;;;3.20;;
65656;SDS011;57397;50.096;14.404;2022-12-18T02:52:06;5.45;;;2.83;;
65656;SDS011;57397;50.096;14.404;2022-12-18T02:57:53;7.35;;;3.45;;
65656;SDS011;57397;50.096;14.404;2022-12-18T03:00:02;6.13;;;2.80;;
65656;SDS011;57397;50.096;14.404;2022-12-18T03:05:30;5.63;;;2.88;;
65656;SDS011;57397;50.096;14.404;2022-12-18T03:07:59;5.40;;;3.05;;
65656;SDS011;57397;50.096;14.404;2022-12-18T03:10:28;6.75;;;3.20;;
65656;SDS011;57397;50.096;14.404;2022-12-18T03:13:00;6.32;;;3.15;;
65656;SDS011;57397;50.096;14.404;2022-12-18T03:15:30;5.35;;;3.00;;
65656;SDS011;57397;50.096;14.404;2022-12-18T03:18:01;6.97;;;3.22;;
65656;SDS011;57397;50.096;14.404;2022-12-18T03:20:31;6.63;;;3.35;;
65656;SDS011;57397;50.096;14.404;2022-12-18T03:23:10;5.57;;;2.83;;
65656;SDS011;57397;50.096;14.404;2022-12-18T03:25:39;5.10;;;2.92;;
65656;SDS011;57397;50.096;14.404;2022-12-18T03:28:05;5.75;;;2.85;;
65656;SDS011;57397;50.096;14.404;2022-12-18T03:30:33;6.03;;;3.05;;
65656;SDS011;57397;50.096;14.404;2022-12-18T03:33:02;6.35;;;3.03;;
65656;SDS011;57397;50.096;14.404;2022-12-18T03:35:33;6.20;;;2.92;;
65656;SDS011;57397;50.096;14.404;2022-12-18T03:38:01;5.55;;;2.83;;
65656;SDS011;57397;50.096;14.404;2022-12-18T03:40:29;6.65;;;3.08;;
65656;SDS011;57397;50.096;14.404;2022-12-18T03:46:20;6.07;;;2.80;;
65656;SDS011;57397;50.096;14.404;2022-12-18T03:49:05;6.07;;;2.70;;
65656;SDS011;57397;50.096;14.404;2022-12-18T03:51:41;7.10;;;2.90;;
65656;SDS011;57397;50.096;14.404;2022-12-18T03:54:09;5.68;;;2.95;;
65656;SDS011;57397;50.096;14.404;2022-12-18T03:56:41;7.25;;;2.72;;
65656;SDS011;57397;50.096;14.404;2022-12-18T03:59:08;8.50;;;3.25;;
65656;SDS011;57397;50.096;14.404;2022-12-18T04:01:36;5.47;;;2.97;;
65656;SDS011;57397;50.096;14.404;2022-12-18T04:04:04;6.13;;;3.17;;
65656;SDS011;57397;50.096;14.404;2022-12-18T04:06:31;6.50;;;3.28;;
65656;SDS011;57397;50.096;14.404;2022-12-18T04:08:57;7.45;;;3.70;;
65656;SDS011;57397;50.096;14.404;2022-12-18T04:11:23;5.60;;;3.13;;
65656;SDS011;57397;50.096;14.404;2022-12-18T04:13:48;5.43;;;3.05;;
65656;SDS011;57397;50.096;14.404;2022-12-18T04:16:14;6.63;;;3.05;;
65656;SDS011;57397;50.096;14.404;2022-12-18T04:18:39;6.60;;;3.50;;
65656;SDS011;57397;50.096;14.404;2022-12-18T04:21:05;6.38;;;3.40;;
65656;SDS011;57397;50.096;14.404;2022-12-18T04:23:30;7.57;;;3.40;;
65656;SDS011;57397;50.096;14.404;2022-12-18T04:25:56;6.45;;;3.67;;
65656;SDS011;57397;50.096;14.404;2022-12-18T04:28:21;7.18;;;3.65;;
65656;SDS011;57397;50.096;14.404;2022-12-18T04:30:46;6.68;;;3.67;;
65656;SDS011;57397;50.096;14.404;2022-12-18T04:33:12;6.85;;;3.60;;
65656;SDS011;57397;50.096;14.404;2022-12-18T04:35:43;8.35;;;3.88;;
65656;SDS011;57397;50.096;14.404;2022-12-18T04:38:08;8.00;;;4.00;;
65656;SDS011;57397;50.096;14.404;2022-12-18T04:40:35;7.30;;;3.63;;
65656;SDS011;57397;50.096;14.404;2022-12-18T04:43:01;6.85;;;3.50;;
65656;SDS011;57397;50.096;14.404;2022-12-18T04:45:26;8.25;;;3.88;;
65656;SDS011;57397;50.096;14.404;2022-12-18T04:47:52;9.68;;;3.90;;
65656;SDS011;57397;50.096;14.404;2022-12-18T04:50:17;8.77;;;4.07;;
65656;SDS011;57397;50.096;14.404;2022-12-18T04:52:42;8.43;;;3.95;;
65656;SDS011;57397;50.096;14.404;2022-12-18T04:55:08;8.63;;;4.10;;
65656;SDS011;57397;50.096;14.404;2022-12-18T04:57:33;10.20;;;4.22;;
65656;SDS011;57397;50.096;14.404;2022-12-18T04:59:59;11.20;;;4.88;;
65656;SDS011;57397;50.096;14.404;2022-12-18T05:02:24;12.13;;;4.53;;
65656;SDS011;57397;50.096;14.404;2022-12-18T05:04:50;9.52;;;4.57;;
65656;SDS011;57397;50.096;14.404;2022-12-18T05:07:15;10.23;;;4.75;;
65656;SDS011;57397;50.096;14.404;2022-12-18T05:09:40;11.13;;;4.80;;
65656;SDS011;57397;50.096;14.404;2022-12-18T05:12:06;11.63;;;5.57;;
65656;SDS011;57397;50.096;14.404;2022-12-18T05:14:31;9.93;;;4.93;;
65656;SDS011;57397;50.096;14.404;2022-12-18T05:16:57;11.63;;;5.60;;
65656;SDS011;57397;50.096;14.404;2022-12-18T05:19:22;13.20;;;5.50;;
65656;SDS011;57397;50.096;14.404;2022-12-18T05:21:48;10.02;;;5.05;;
65656;SDS011;57397;50.096;14.404;2022-12-18T05:24:13;14.15;;;6.20;;
65656;SDS011;57397;50.096;14.404;2022-12-18T05:26:39;12.02;;;5.25;;
65656;SDS011;57397;50.096;14.404;2022-12-18T05:29:04;13.75;;;6.18;;
65656;SDS011;57397;50.096;14.404;2022-12-18T05:31:30;10.77;;;5.32;;
65656;SDS011;57397;50.096;14.404;2022-12-18T05:33:55;11.50;;;5.78;;
65656;SDS011;57397;50.096;14.404;2022-12-18T05:36:20;10.77;;;5.32;;
65656;SDS011;57397;50.096;14.404;2022-12-18T05:38:46;10.82;;;5.50;;
65656;SDS011;57397;50.096;14.404;2022-12-18T05:41:11;11.40;;;5.47;;
65656;SDS011;57397;50.096;14.404;2022-12-18T05:43:37;11.95;;;6.20;;
65656;SDS011;57397;50.096;14.404;2022-12-18T05:46:05;12.48;;;5.97;;
65656;SDS011;57397;50.096;14.404;2022-12-18T05:48:31;12.50;;;5.28;;
65656;SDS011;57397;50.096;14.404;2022-12-18T05:51:02;12.32;;;5.53;;
65656;SDS011;57397;50.096;14.404;2022-12-18T05:53:29;13.90;;;6.10;;
65656;SDS011;57397;50.096;14.404;2022-12-18T05:55:59;13.18;;;5.60;;
65656;SDS011;57397;50.096;14.404;2022-12-18T05:58:25;12.63;;;5.90;;
65656;SDS011;57397;50.096;14.404;2022-12-18T06:00:50;12.95;;;5.28;;
65656;SDS011;57397;50.096;14.404;2022-12-18T06:03:16;12.48;;;5.80;;
65656;SDS011;57397;50.096;14.404;2022-12-18T06:05:42;11.93;;;5.60;;
65656;SDS011;57397;50.096;14.404;2022-12-18T06:08:09;13.18;;;5.65;;
65656;SDS011;57397;50.096;14.404;2022-12-18T06:10:34;11.63;;;5.35;;
65656;SDS011;57397;50.096;14.404;2022-12-18T06:13:00;13.48;;;5.65;;
65656;SDS011;57397;50.096;14.404;2022-12-18T06:15:25;11.80;;;5.45;;
65656;SDS011;57397;50.096;14.404;2022-12-18T06:17:51;11.57;;;5.50;;
65656;SDS011;57397;50.096;14.404;2022-12-18T06:20:16;13.38;;;5.70;;
65656;SDS011;57397;50.096;14.404;2022-12-18T06:22:42;12.82;;;5.35;;
65656;SDS011;57397;50.096;14.404;2022-12-18T06:25:07;10.10;;;5.13;;
65656;SDS011;57397;50.096;14.404;2022-12-18T06:27:33;13.27;;;5.78;;
65656;SDS011;57397;50.096;14.404;2022-12-18T06:30:00;12.95;;;6.10;;
65656;SDS011;57397;50.096;14.404;2022-12-18T06:32:26;11.57;;;5.15;;
65656;SDS011;57397;50.096;14.404;2022-12-18T06:34:52;9.70;;;5.10;;
65656;SDS011;57397;50.096;14.404;2022-12-18T06:37:18;10.80;;;5.40;;
65656;SDS011;57397;50.096;14.404;2022-12-18T06:39:44;10.70;;;5.65;;
65656;SDS011;57397;50.096;14.404;2022-12-18T06:42:09;10.27;;;5.25;;
65656;SDS011;57397;50.096;14.404;2022-12-18T06:44:35;11.18;;;5.40;;
65656;SDS011;57397;50.096;14.404;2022-12-18T06:47:00;9.55;;;4.90;;
65656;SDS011;57397;50.096;14.404;2022-12-18T06:49:26;10.80;;;4.80;;
65656;SDS011;57397;50.096;14.404;2022-12-18T06:51:51;10.93;;;4.80;;
65656;SDS011;57397;50.096;14.404;2022-12-18T06:54:17;9.48;;;4.63;;
65656;SDS011;57397;50.096;14.404;2022-12-18T06:56:44;9.35;;;4.65;;
65656;SDS011;57397;50.096;14.404;2022-12-18T06:59:11;10.02;;;5.10;;
65656;SDS011;57397;50.096;14.404;2022-12-18T07:01:38;9.77;;;4.50;;
65656;SDS011;57397;50.096;14.404;2022-12-18T07:04:04;10.77;;;4.70;;
65656;SDS011;57397;50.096;14.404;2022-12-18T07:06:30;11.10;;;4.80;;
65656;SDS011;57397;50.096;14.404;2022-12-18T07:08:55;9.88;;;4.65;;
65656;SDS011;57397;50.096;14.404;2022-12-18T07:11:21;7.80;;;4.40;;
65656;SDS011;57397;50.096;14.404;2022-12-18T07:13:47;10.25;;;5.00;;
65656;SDS011;57397;50.096;14.404;2022-12-18T07:16:16;8.48;;;4.53;;
65656;SDS011;57397;50.096;14.404;2022-12-18T07:18:43;12.90;;;4.97;;
65656;SDS011;57397;50.096;14.404;2022-12-18T07:21:10;9.32;;;4.75;;
65656;SDS011;57397;50.096;14.404;2022-12-18T07:23:37;11.65;;;5.22;;
65656;SDS011;57397;50.096;14.404;2022-12-18T07:26:03;9.45;;;5.35;;
65656;SDS011;57397;50.096;14.404;2022-12-18T07:28:30;10.00;;;4.82;;
65656;SDS011;57397;50.096;14.404;2022-12-18T07:30:56;9.85;;;4.90;;
65656;SDS011;57397;50.096;14.404;2022-12-18T07:33:22;10.02;;;5.40;;
65656;SDS011;57397;50.096;14.404;2022-12-18T07:35:47;9.55;;;4.72;;
65656;SDS011;57397;50.096;14.404;2022-12-18T07:38:13;10.63;;;5.22;;
65656;SDS011;57397;50.096;14.404;2022-12-18T07:40:38;10.60;;;5.10;;
65656;SDS011;57397;50.096;14.404;2022-12-18T07:43:04;10.68;;;5.30;;
65656;SDS011;57397;50.096;14.404;2022-12-18T07:45:29;10.32;;;5.35;;
65656;SDS011;57397;50.096;14.404;2022-12-18T07:47:54;10.05;;;4.85;;
65656;SDS011;57397;50.096;14.404;2022-12-18T07:50:20;12.68;;;5.72;;
65656;SDS011;57397;50.096;14.404;2022-12-18T07:52:45;9.23;;;4.57;;
65656;SDS011;57397;50.096;14.404;2022-12-18T07:55:11;9.85;;;4.75;;
65656;SDS011;57397;50.096;14.404;2022-12-18T07:57:37;9.82;;;4.85;;
65656;SDS011;57397;50.096;14.404;2022-12-18T08:00:02;11.52;;;5.05;;
65656;SDS011;57397;50.096;14.404;2022-12-18T08:02:30;10.27;;;5.43;;
65656;SDS011;57397;50.096;14.404;2022-12-18T08:04:56;9.07;;;5.03;;
65656;SDS011;57397;50.096;14.404;2022-12-18T08:07:21;11.43;;;5.28;;
65656;SDS011;57397;50.096;14.404;2022-12-18T08:09:47;11.02;;;5.68;;
65656;SDS011;57397;50.096;14.404;2022-12-18T08:12:12;10.85;;;5.28;;
65656;SDS011;57397;50.096;14.404;2022-12-18T08:14:38;11.50;;;5.60;;
65656;SDS011;57397;50.096;14.404;2022-12-18T08:17:03;11.40;;;5.50;;
65656;SDS011;57397;50.096;14.404;2022-12-18T08:19:28;12.75;;;5.88;;
65656;SDS011;57397;50.096;14.404;2022-12-18T08:21:54;12.20;;;5.43;;
65656;SDS011;57397;50.096;14.404;2022-12-18T08:24:19;12.32;;;6.25;;
65656;SDS011;57397;50.096;14.404;2022-12-18T08:26:45;13.05;;;5.63;;
65656;SDS011;57397;50.096;14.404;2022-12-18T08:29:10;13.30;;;5.72;;
65656;SDS011;57397;50.096;14.404;2022-12-18T08:31:36;13.35;;;6.30;;
65656;SDS011;57397;50.096;14.404;2022-12-18T08:34:01;10.27;;;5.25;;
65656;SDS011;57397;50.096;14.404;2022-12-18T08:36:27;12.10;;;5.93;;
65656;SDS011;57397;50.096;14.404;2022-12-18T08:38:52;11.63;;;5.53;;
65656;SDS011;57397;50.096;14.404;2022-12-18T08:41:18;12.00;;;5.80;;
65656;SDS011;57397;50.096;14.404;2022-12-18T08:43:44;12.23;;;6.15;;
65656;SDS011;57397;50.096;14.404;2022-12-18T08:46:31;13.47;;;5.93;;
65656;SDS011;57397;50.096;14.404;2022-12-18T08:49:01;10.98;;;5.55;;
65656;SDS011;57397;50.096;14.404;2022-12-18T08:51:27;12.57;;;6.05;;
65656;SDS011;57397;50.096;14.404;2022-12-18T08:53:52;10.00;;;5.55;;
65656;SDS011;57397;50.096;14.404;2022-12-18T08:56:18;11.20;;;5.85;;
65656;SDS011;57397;50.096;14.404;2022-12-18T08:58:50;11.55;;;5.80;;
65656;SDS011;57397;50.096;14.404;2022-12-18T09:01:17;13.25;;;6.35;;
65656;SDS011;57397;50.096;14.404;2022-12-18T09:03:42;12.73;;;6.45;;
65656;SDS011;57397;50.096;14.404;2022-12-18T09:06:07;10.88;;;6.00;;
65656;SDS011;57397;50.096;14.404;2022-12-18T09:08:33;12.77;;;5.57;;
65656;SDS011;57397;50.096;14.404;2022-12-18T09:11:01;14.57;;;6.13;;
65656;SDS011;57397;50.096;14.404;2022-12-18T09:13:27;13.77;;;6.18;;
65656;SDS011;57397;50.096;14.404;2022-12-18T09:15:53;12.25;;;6.30;;
65656;SDS011;57397;50.096;14.404;2022-12-18T09:18:20;11.98;;;6.53;;
65656;SDS011;57397;50.096;14.404;2022-12-18T09:20:46;12.85;;;6.03;;
65656;SDS011;57397;50.096;14.404;2022-12-18T09:23:12;13.95;;;6.45;;
65656;SDS011;57397;50.096;14.404;2022-12-18T09:25:38;12.65;;;6.43;;
65656;SDS011;57397;50.096;14.404;2022-12-18T09:28:13;14.07;;;6.68;;
65656;SDS011;57397;50.096;14.404;2022-12-18T09:30:45;13.23;;;6.47;;
65656;SDS011;57397;50.096;14.404;2022-12-18T09:33:14;14.55;;;6.53;;
65656;SDS011;57397;50.096;14.404;2022-12-18T09:35:40;16.02;;;7.03;;
65656;SDS011;57397;50.096;14.404;2022-12-18T09:38:07;15.48;;;7.03;;
65656;SDS011;57397;50.096;14.404;2022-12-18T09:40:35;13.30;;;6.90;;
65656;SDS011;57397;50.096;14.404;2022-12-18T09:43:03;15.55;;;7.45;;
65656;SDS011;57397;50.096;14.404;2022-12-18T09:45:30;13.35;;;6.45;;
65656;SDS011;57397;50.096;14.404;2022-12-18T09:48:10;14.20;;;6.65;;
65656;SDS011;57397;50.096;14.404;2022-12-18T09:50:41;14.45;;;7.20;;
65656;SDS011;57397;50.096;14.404;2022-12-18T09:53:11;12.93;;;6.45;;
65656;SDS011;57397;50.096;14.404;2022-12-18T09:55:46;14.18;;;6.68;;
65656;SDS011;57397;50.096;14.404;2022-12-18T09:58:59;13.65;;;6.70;;
65656;SDS011;57397;50.096;14.404;2022-12-18T10:01:21;15.52;;;7.03;;
65656;SDS011;57397;50.096;14.404;2022-12-18T10:03:47;13.25;;;6.47;;
65656;SDS011;57397;50.096;14.404;2022-12-18T10:06:21;14.25;;;6.90;;
65656;SDS011;57397;50.096;14.404;2022-12-18T10:09:27;12.52;;;6.00;;
65656;SDS011;57397;50.096;14.404;2022-12-18T10:17:55;15.25;;;6.97;;
65656;SDS011;57397;50.096;14.404;2022-12-18T10:22:54;15.10;;;6.75;;
65656;SDS011;57397;50.096;14.404;2022-12-18T10:25:50;13.48;;;6.55;;
65656;SDS011;57397;50.096;14.404;2022-12-18T10:28:26;16.10;;;7.43;;
65656;SDS011;57397;50.096;14.404;2022-12-18T10:30:52;15.60;;;7.20;;
65656;SDS011;57397;50.096;14.404;2022-12-18T10:33:19;16.02;;;7.60;;
65656;SDS011;57397;50.096;14.404;2022-12-18T10:35:47;15.38;;;6.95;;
65656;SDS011;57397;50.096;14.404;2022-12-18T10:41:00;16.58;;;7.70;;
65656;SDS011;57397;50.096;14.404;2022-12-18T10:43:47;15.15;;;7.30;;
65656;SDS011;57397;50.096;14.404;2022-12-18T10:46:14;16.80;;;7.53;;
65656;SDS011;57397;50.096;14.404;2022-12-18T10:48:47;14.68;;;7.35;;
65656;SDS011;57397;50.096;14.404;2022-12-18T10:51:28;15.82;;;7.35;;
65656;SDS011;57397;50.096;14.404;2022-12-18T10:56:43;18.23;;;7.97;;
65656;SDS011;57397;50.096;14.404;2022-12-18T10:59:11;14.27;;;7.07;;
65656;SDS011;57397;50.096;14.404;2022-12-18T11:01:45;17.17;;;8.13;;
65656;SDS011;57397;50.096;14.404;2022-12-18T11:04:13;15.35;;;7.63;;
65656;SDS011;57397;50.096;14.404;2022-12-18T11:06:52;14.77;;;7.15;;
65656;SDS011;57397;50.096;14.404;2022-12-18T11:09:20;16.75;;;7.82;;
65656;SDS011;57397;50.096;14.404;2022-12-18T11:11:50;14.40;;;7.55;;
65656;SDS011;57397;50.096;14.404;2022-12-18T11:14:21;17.00;;;7.80;;
65656;SDS011;57397;50.096;14.404;2022-12-18T11:16:49;13.90;;;6.93;;
65656;SDS011;57397;50.096;14.404;2022-12-18T11:19:34;13.73;;;6.95;;
65656;SDS011;57397;50.096;14.404;2022-12-18T11:22:02;15.98;;;7.47;;
65656;SDS011;57397;50.096;14.404;2022-12-18T11:24:41;13.57;;;7.45;;
65656;SDS011;57397;50.096;14.404;2022-12-18T11:27:16;15.23;;;7.75;;
65656;SDS011;57397;50.096;14.404;2022-12-18T11:29:43;20.90;;;7.68;;
65656;SDS011;57397;50.096;14.404;2022-12-18T11:34:45;17.13;;;7.70;;
65656;SDS011;57397;50.096;14.404;2022-12-18T11:37:13;14.18;;;7.53;;
65656;SDS011;57397;50.096;14.404;2022-12-18T11:39:43;16.17;;;8.20;;
65656;SDS011;57397;50.096;14.404;2022-12-18T11:42:17;17.75;;;8.77;;
65656;SDS011;57397;50.096;14.404;2022-12-18T11:44:51;17.30;;;8.55;;
65656;SDS011;57397;50.096;14.404;2022-12-18T11:47:34;15.33;;;7.73;;
65656;SDS011;57397;50.096;14.404;2022-12-18T11:50:11;21.02;;;9.18;;
65656;SDS011;57397;50.096;14.404;2022-12-18T11:52:41;20.83;;;10.57;;
65656;SDS011;57397;50.096;14.404;2022-12-18T11:55:18;19.52;;;9.85;;
65656;SDS011;57397;50.096;14.404;2022-12-18T11:57:56;20.80;;;10.25;;
65656;SDS011;57397;50.096;14.404;2022-12-18T12:00:39;21.15;;;9.93;;
65656;SDS011;57397;50.096;14.404;2022-12-18T12:06:56;21.20;;;9.25;;
65656;SDS011;57397;50.096;14.404;2022-12-18T12:10:21;19.02;;;8.77;;
65656;SDS011;57397;50.096;14.404;2022-12-18T12:13:21;20.98;;;9.77;;
65656;SDS011;57397;50.096;14.404;2022-12-18T12:20:42;17.90;;;9.30;;
65656;SDS011;57397;50.096;14.404;2022-12-18T12:26:20;19.02;;;9.80;;
65656;SDS011;57397;50.096;14.404;2022-12-18T12:40:12;19.83;;;9.18;;
65656;SDS011;57397;50.096;14.404;2022-12-18T12:42:46;18.33;;;9.88;;
65656;SDS011;57397;50.096;14.404;2022-12-18T12:45:34;19.77;;;9.55;;
65656;SDS011;57397;50.096;14.404;2022-12-18T12:48:04;21.20;;;9.35;;
65656;SDS011;57397;50.096;14.404;2022-12-18T12:50:31;22.77;;;9.82;;
65656;SDS011;57397;50.096;14.404;2022-12-18T12:52:59;17.60;;;9.25;;
65656;SDS011;57397;50.096;14.404;2022-12-18T12:55:27;20.33;;;9.82;;
65656;SDS011;57397;50.096;14.404;2022-12-18T13:00:50;23.00;;;10.85;;
65656;SDS011;57397;50.096;14.404;2022-12-18T13:05:59;21.88;;;10.52;;
65656;SDS011;57397;50.096;14.404;2022-12-18T13:08:27;20.20;;;9.55;;
65656;SDS011;57397;50.096;14.404;2022-12-18T13:10:58;19.95;;;9.95;;
65656;SDS011;57397;50.096;14.404;2022-12-18T13:13:51;17.77;;;9.70;;
65656;SDS011;57397;50.096;14.404;2022-12-18T13:16:24;17.38;;;9.38;;
65656;SDS011;57397;50.096;14.404;2022-12-18T13:18:54;20.85;;;9.75;;
65656;SDS011;57397;50.096;14.404;2022-12-18T13:21:31;23.50;;;9.85;;
65656;SDS011;57397;50.096;14.404;2022-12-18T13:27:26;17.67;;;9.10;;
65656;SDS011;57397;50.096;14.404;2022-12-18T13:30:53;18.08;;;9.07;;
65656;SDS011;57397;50.096;14.404;2022-12-18T13:35:53;19.45;;;9.90;;
65656;SDS011;57397;50.096;14.404;2022-12-18T13:40:58;23.23;;;10.05;;
65656;SDS011;57397;50.096;14.404;2022-12-18T13:43:29;20.95;;;10.00;;
65656;SDS011;57397;50.096;14.404;2022-12-18T13:46:18;18.70;;;9.02;;
65656;SDS011;57397;50.096;14.404;2022-12-18T13:48:55;21.98;;;9.57;;
65656;SDS011;57397;50.096;14.404;2022-12-18T13:51:31;20.20;;;9.27;;
65656;SDS011;57397;50.096;14.404;2022-12-18T13:54:01;18.85;;;9.32;;
65656;SDS011;57397;50.096;14.404;2022-12-18T13:56:42;20.52;;;9.10;;
65656;SDS011;57397;50.096;14.404;2022-12-18T14:01:57;17.95;;;9.48;;
65656;SDS011;57397;50.096;14.404;2022-12-18T14:04:34;19.55;;;9.25;;
65656;SDS011;57397;50.096;14.404;2022-12-18T14:07:13;19.88;;;9.70;;
65656;SDS011;57397;50.096;14.404;2022-12-18T14:09:40;18.35;;;8.95;;
65656;SDS011;57397;50.096;14.404;2022-12-18T14:12:44;18.77;;;9.27;;
65656;SDS011;57397;50.096;14.404;2022-12-18T14:20:55;16.88;;;8.95;;
65656;SDS011;57397;50.096;14.404;2022-12-18T14:23:33;23.65;;;9.35;;
65656;SDS011;57397;50.096;14.404;2022-12-18T14:28:53;19.23;;;9.00;;
65656;SDS011;57397;50.096;14.404;2022-12-18T14:31:24;15.48;;;8.52;;
65656;SDS011;57397;50.096;14.404;2022-12-18T14:33:51;20.88;;;9.68;;
65656;SDS011;57397;50.096;14.404;2022-12-18T14:36:24;20.35;;;9.82;;
65656;SDS011;57397;50.096;14.404;2022-12-18T14:38:52;18.75;;;9.00;;
65656;SDS011;57397;50.096;14.404;2022-12-18T14:41:23;18.98;;;9.55;;
65656;SDS011;57397;50.096;14.404;2022-12-18T14:43:50;17.65;;;9.63;;
65656;SDS011;57397;50.096;14.404;2022-12-18T14:46:32;19.67;;;9.93;;
65656;SDS011;57397;50.096;14.404;2022-12-18T14:51:31;18.42;;;9.32;;
65656;SDS011;57397;50.096;14.404;2022-12-18T14:53:58;20.40;;;9.85;;
65656;SDS011;57397;50.096;14.404;2022-12-18T14:56:34;18.17;;;9.27;;
65656;SDS011;57397;50.096;14.404;2022-12-18T15:01:32;18.73;;;9.68;;
65656;SDS011;57397;50.096;14.404;2022-12-18T15:04:00;17.75;;;9.63;;
65656;SDS011;57397;50.096;14.404;2022-12-18T15:06:34;19.13;;;9.00;;
65656;SDS011;57397;50.096;14.404;2022-12-18T15:09:01;19.85;;;9.32;;
65656;SDS011;57397;50.096;14.404;2022-12-18T15:11:33;19.02;;;9.65;;
65656;SDS011;57397;50.096;14.404;2022-12-18T15:14:23;18.27;;;9.20;;
65656;SDS011;57397;50.096;14.404;2022-12-18T15:17:16;18.33;;;8.80;;
65656;SDS011;57397;50.096;14.404;2022-12-18T15:19:47;22.17;;;9.93;;
65656;SDS011;57397;50.096;14.404;2022-12-18T15:22:28;21.17;;;10.05;;
65656;SDS011;57397;50.096;14.404;2022-12-18T15:24:55;20.13;;;9.57;;
65656;SDS011;57397;50.096;14.404;2022-12-18T15:27:28;21.35;;;10.30;;
65656;SDS011;57397;50.096;14.404;2022-12-18T15:32:38;19.75;;;9.85;;
65656;SDS011;57397;50.096;14.404;2022-12-18T15:37:39;20.15;;;9.75;;
65656;SDS011;57397;50.096;14.404;2022-12-18T15:40:05;21.67;;;10.10;;
65656;SDS011;57397;50.096;14.404;2022-12-18T15:42:32;21.38;;;10.50;;
65656;SDS011;57397;50.096;14.404;2022-12-18T15:45:16;21.42;;;9.70;;
65656;SDS011;57397;50.096;14.404;2022-12-18T15:47:41;22.05;;;10.68;;
65656;SDS011;57397;50.096;14.404;2022-12-18T15:50:07;21.40;;;10.07;;
65656;SDS011;57397;50.096;14.404;2022-12-18T15:52:35;22.17;;;9.73;;
65656;SDS011;57397;50.096;14.404;2022-12-18T15:55:05;21.92;;;9.73;;
65656;SDS011;57397;50.096;14.404;2022-12-18T15:57:53;20.60;;;10.32;;
65656;SDS011;57397;50.096;14.404;2022-12-18T16:00:19;23.10;;;10.70;;
65656;SDS011;57397;50.096;14.404;2022-12-18T16:02:44;19.88;;;9.82;;
65656;SDS011;57397;50.096;14.404;2022-12-18T16:05:13;19.75;;;9.82;;
65656;SDS011;57397;50.096;14.404;2022-12-18T16:07:40;20.55;;;10.18;;
65656;SDS011;57397;50.096;14.404;2022-12-18T16:10:06;19.92;;;9.25;;
65656;SDS011;57397;50.096;14.404;2022-12-18T16:12:31;20.25;;;9.43;;
65656;SDS011;57397;50.096;14.404;2022-12-18T16:14:57;22.42;;;10.10;;
65656;SDS011;57397;50.096;14.404;2022-12-18T16:17:22;20.20;;;10.30;;
65656;SDS011;57397;50.096;14.404;2022-12-18T16:19:48;22.65;;;10.70;;
65656;SDS011;57397;50.096;14.404;2022-12-18T16:22:20;22.17;;;10.48;;
65656;SDS011;57397;50.096;14.404;2022-12-18T16:24:50;22.52;;;9.95;;